Time;durP1;ratioP1;P1;durP2;ratioP2;P2;SDS_P1;SDS_P2;PMS_P1;PMS_P2;Temp;Humidity;BMP_temperature;BMP_pressure;BME280_temperature;BME280_humidity;BME280_pressure;Samples;Min_cycle;Max_cycle;Signal;HPM_P1;HPM_P2
2023/08/15 00:00:44;;;;;;;13.63;8.20;;;;;;;;;;5107352;28;20047;-57
2023/08/15 00:03:10;;;;;;;15.55;8.77;;;;;;;;;;5112604;28;20394;-57
2023/08/15 00:05:37;;;;;;;18.45;8.68;;;;;;;;;;5111976;28;20143;-57
2023/08/15 00:08:03;;;;;;;16.83;8.38;;;;;;;;;;5102897;28;20128;-57
2023/08/15 00:10:29;;;;;;;14.20;8.98;;;;;;;;;;5103451;28;20092;-57
2023/08/15 00:12:56;;;;;;;16.15;8.88;;;;;;;;;;5100692;28;20108;-57
2023/08/15 00:15:22;;;;;;;15.02;8.85;;;;;;;;;;5093375;28;20109;-57
2023/08/15 00:17:48;;;;;;;13.63;8.18;;;;;;;;;;5095856;28;20362;-57
2023/08/15 00:20:14;;;;;;;13.63;7.13;;;;;;;;;;5096750;28;20143;-56
2023/08/15 00:22:41;;;;;;;12.95;8.30;;;;;;;;;;5106646;28;20039;-57
2023/08/15 00:25:07;;;;;;;14.75;7.95;;;;;;;;;;5087473;28;20443;-57
2023/08/15 00:27:33;;;;;;;12.70;7.93;;;;;;;;;;5100754;28;20387;-57
2023/08/15 00:30:00;;;;;;;12.45;7.72;;;;;;;;;;5095226;28;20040;-57
2023/08/15 00:32:26;;;;;;;15.10;8.07;;;;;;;;;;5091541;28;20129;-57
2023/08/15 00:34:52;;;;;;;12.75;8.57;;;;;;;;;;5092458;28;20483;-57
2023/08/15 00:37:18;;;;;;;13.55;7.55;;;;;;;;;;5097578;28;20126;-57
2023/08/15 00:39:44;;;;;;;16.23;7.70;;;;;;;;;;5091974;28;20084;-57
2023/08/15 00:42:10;;;;;;;15.95;8.18;;;;;;;;;;5100496;28;20086;-57
2023/08/15 00:44:40;;;;;;;13.77;7.82;;;;;;;;;;5092847;28;20051;-57
2023/08/15 00:47:07;;;;;;;12.07;8.05;;;;;;;;;;5099557;28;20043;-57
2023/08/15 00:49:33;;;;;;;15.43;7.50;;;;;;;;;;5091071;28;20056;-57
2023/08/15 00:51:59;;;;;;;14.93;7.93;;;;;;;;;;5104395;28;20051;-57
2023/08/15 00:54:26;;;;;;;10.65;7.57;;;;;;;;;;5100857;27;20033;-57
2023/08/15 00:56:52;;;;;;;13.77;7.60;;;;;;;;;;5103044;28;20050;-57
2023/08/15 00:59:18;;;;;;;15.85;7.72;;;;;;;;;;5092332;28;20066;-57
2023/08/15 01:01:45;;;;;;;13.93;7.85;;;;;;;;;;5089113;28;20055;-57
2023/08/15 01:04:11;;;;;;;13.82;7.38;;;;;;;;;;5093023;28;20035;-58
2023/08/15 01:06:38;;;;;;;15.60;7.75;;;;;;;;;;5097267;28;20112;-57
2023/08/15 01:09:05;;;;;;;10.77;7.30;;;;;;;;;;5078946;28;20446;-57
2023/08/15 01:11:35;;;;;;;11.50;8.00;;;;;;;;;;5093018;28;20118;-57
2023/08/15 01:14:05;;;;;;;13.18;7.82;;;;;;;;;;5091167;28;20040;-57
2023/08/15 01:16:35;;;;;;;13.27;8.43;;;;;;;;;;5090771;28;20079;-57
2023/08/15 01:19:21;;;;;;;15.38;8.65;;;;;;;;;;5102714;28;20483;-57
2023/08/15 01:21:49;;;;;;;14.13;8.52;;;;;;;;;;5096166;28;20047;-57
2023/08/15 01:24:16;;;;;;;12.80;8.20;;;;;;;;;;5103855;28;20040;-57
2023/08/15 01:26:42;;;;;;;12.60;7.68;;;;;;;;;;5086648;28;20060;-57
2023/08/15 01:29:08;;;;;;;17.38;8.55;;;;;;;;;;5091197;28;20063;-57
2023/08/15 01:31:43;;;;;;;13.10;8.23;;;;;;;;;;5098679;28;20059;-58
2023/08/15 01:34:11;;;;;;;13.65;8.25;;;;;;;;;;5105499;28;20120;-57
2023/08/15 01:36:40;;;;;;;15.93;7.72;;;;;;;;;;5107630;28;20071;-57
2023/08/15 01:39:07;;;;;;;13.43;8.25;;;;;;;;;;5101122;28;20439;-57
2023/08/15 01:41:36;;;;;;;18.20;8.18;;;;;;;;;;5093675;28;20143;-57
2023/08/15 01:44:03;;;;;;;12.75;8.55;;;;;;;;;;5088957;28;20047;-57
2023/08/15 01:46:30;;;;;;;12.50;8.30;;;;;;;;;;5085575;28;20436;-57
2023/08/15 01:48:57;;;;;;;14.57;8.13;;;;;;;;;;5085187;28;20048;-57
2023/08/15 01:51:23;;;;;;;16.65;10.05;;;;;;;;;;5084682;28;20127;-57
2023/08/15 01:53:50;;;;;;;20.02;9.88;;;;;;;;;;5086944;28;20111;-57
2023/08/15 01:56:16;;;;;;;12.13;8.55;;;;;;;;;;5085701;28;20567;-57
2023/08/15 01:58:42;;;;;;;20.77;8.57;;;;;;;;;;5085169;28;20510;-57
2023/08/15 02:01:08;;;;;;;18.20;9.32;;;;;;;;;;5088894;28;20044;-57
2023/08/15 02:03:34;;;;;;;13.90;9.02;;;;;;;;;;5092817;28;20055;-57
2023/08/15 02:06:00;;;;;;;19.35;9.70;;;;;;;;;;5092676;28;20097;-57
2023/08/15 02:08:27;;;;;;;15.32;8.60;;;;;;;;;;5093399;28;20502;-57
2023/08/15 02:10:53;;;;;;;18.88;8.98;;;;;;;;;;5092946;28;20051;-57
2023/08/15 02:13:19;;;;;;;12.18;8.48;;;;;;;;;;5099290;28;20104;-57
2023/08/15 02:15:45;;;;;;;18.10;8.75;;;;;;;;;;5093025;28;20040;-57
2023/08/15 02:18:12;;;;;;;13.65;8.82;;;;;;;;;;5092749;28;20040;-57
2023/08/15 02:20:38;;;;;;;17.27;8.63;;;;;;;;;;5094299;28;20055;-57
2023/08/15 02:23:04;;;;;;;15.07;9.77;;;;;;;;;;5086323;27;20048;-57
2023/08/15 02:25:30;;;;;;;14.02;9.25;;;;;;;;;;5091026;28;20039;-57
2023/08/15 02:27:57;;;;;;;13.60;8.27;;;;;;;;;;5099068;28;20051;-57
2023/08/15 02:30:23;;;;;;;18.73;9.45;;;;;;;;;;5090761;28;20153;-57
2023/08/15 02:32:49;;;;;;;14.65;9.40;;;;;;;;;;5094488;28;20063;-57
2023/08/15 02:35:16;;;;;;;14.02;8.65;;;;;;;;;;5091908;28;20122;-57
2023/08/15 02:37:42;;;;;;;14.07;9.52;;;;;;;;;;5094474;28;20040;-57
2023/08/15 02:40:09;;;;;;;12.82;8.40;;;;;;;;;;5096708;28;20078;-57
2023/08/15 02:42:36;;;;;;;13.23;9.48;;;;;;;;;;5086689;28;20064;-57
2023/08/15 02:45:02;;;;;;;16.33;10.57;;;;;;;;;;5096285;28;20048;-57
2023/08/15 02:47:28;;;;;;;13.30;9.88;;;;;;;;;;5095000;28;20123;-57
2023/08/15 02:49:54;;;;;;;16.60;9.20;;;;;;;;;;5092187;28;20051;-57
2023/08/15 02:52:21;;;;;;;14.63;9.05;;;;;;;;;;5100171;28;20119;-57
2023/08/15 02:54:47;;;;;;;11.50;9.68;;;;;;;;;;5103179;28;20518;-57
2023/08/15 02:57:13;;;;;;;14.20;10.20;;;;;;;;;;5106089;28;20114;-57
2023/08/15 02:59:39;;;;;;;16.02;9.43;;;;;;;;;;5090766;28;20043;-57
2023/08/15 03:02:05;;;;;;;21.35;9.95;;;;;;;;;;5104855;28;20044;-57
2023/08/15 03:04:31;;;;;;;18.70;10.48;;;;;;;;;;5093381;28;20036;-57
2023/08/15 03:06:58;;;;;;;13.27;9.30;;;;;;;;;;5102702;28;20065;-57
2023/08/15 03:09:24;;;;;;;18.20;9.88;;;;;;;;;;5105050;28;20168;-57
2023/08/15 03:11:50;;;;;;;15.68;10.27;;;;;;;;;;5104289;28;20055;-57
2023/08/15 03:14:16;;;;;;;14.13;10.10;;;;;;;;;;5100940;28;20115;-57
2023/08/15 03:16:42;;;;;;;17.23;10.35;;;;;;;;;;5094858;28;20044;-56
2023/08/15 03:19:08;;;;;;;16.30;9.65;;;;;;;;;;5088264;28;20036;-57
2023/08/15 03:21:35;;;;;;;15.25;10.15;;;;;;;;;;5090451;28;20036;-57
2023/08/15 03:24:01;;;;;;;17.83;10.63;;;;;;;;;;5089978;28;20141;-57
2023/08/15 03:26:28;;;;;;;15.02;9.50;;;;;;;;;;5091115;28;20040;-57
2023/08/15 03:28:56;;;;;;;14.90;10.20;;;;;;;;;;5103589;28;20447;-57
2023/08/15 03:31:23;;;;;;;14.07;9.68;;;;;;;;;;5090039;28;20040;-57
2023/08/15 03:33:49;;;;;;;15.88;10.77;;;;;;;;;;5087751;28;20423;-58
2023/08/15 03:36:15;;;;;;;13.40;9.90;;;;;;;;;;5105636;27;20092;-57
2023/08/15 03:38:41;;;;;;;12.40;8.85;;;;;;;;;;5111530;28;20039;-57
2023/08/15 03:41:08;;;;;;;16.90;10.02;;;;;;;;;;5097657;28;20130;-57
2023/08/15 03:43:35;;;;;;;14.30;9.95;;;;;;;;;;5097238;27;21182;-57
2023/08/15 03:46:01;;;;;;;14.02;9.77;;;;;;;;;;5084954;28;20039;-57
2023/08/15 03:48:31;;;;;;;16.27;11.18;;;;;;;;;;5120513;27;20056;-57
2023/08/15 03:50:58;;;;;;;14.13;10.52;;;;;;;;;;5088180;28;20048;-57
2023/08/15 03:53:24;;;;;;;13.25;9.75;;;;;;;;;;5084455;28;20373;-57
2023/08/15 03:55:52;;;;;;;14.65;9.32;;;;;;;;;;5083465;28;20059;-57
2023/08/15 03:58:19;;;;;;;14.43;9.88;;;;;;;;;;5088295;28;20392;-57
2023/08/15 04:00:45;;;;;;;13.90;10.88;;;;;;;;;;5086800;28;20134;-58
2023/08/15 04:03:11;;;;;;;15.35;10.38;;;;;;;;;;5084793;28;20036;-57
2023/08/15 04:05:38;;;;;;;13.95;10.10;;;;;;;;;;5084135;28;20040;-57
2023/08/15 04:08:04;;;;;;;14.68;9.95;;;;;;;;;;5086076;28;20032;-57
2023/08/15 04:10:30;;;;;;;13.57;10.05;;;;;;;;;;5083161;28;20054;-57
2023/08/15 04:12:56;;;;;;;12.82;9.40;;;;;;;;;;5084957;28;20044;-58
2023/08/15 04:15:23;;;;;;;14.15;9.95;;;;;;;;;;5093872;28;20123;-57
2023/08/15 04:17:49;;;;;;;15.13;10.15;;;;;;;;;;5095503;28;20051;-57
2023/08/15 04:20:15;;;;;;;15.52;10.30;;;;;;;;;;5104939;28;20169;-57
2023/08/15 04:22:42;;;;;;;16.30;10.35;;;;;;;;;;5099281;28;20039;-57
2023/08/15 04:25:09;;;;;;;14.38;9.38;;;;;;;;;;5105627;28;20043;-57
2023/08/15 04:27:38;;;;;;;14.93;10.18;;;;;;;;;;5112034;28;20473;-57
2023/08/15 04:30:05;;;;;;;14.18;10.90;;;;;;;;;;5101875;28;20048;-57
2023/08/15 04:32:32;;;;;;;19.23;10.90;;;;;;;;;;5107192;28;20047;-57
2023/08/15 04:34:58;;;;;;;13.38;10.77;;;;;;;;;;5090952;28;20372;-57
2023/08/15 04:37:24;;;;;;;16.15;10.88;;;;;;;;;;5102474;28;20142;-57
2023/08/15 04:39:50;;;;;;;15.10;10.10;;;;;;;;;;5090824;28;20091;-57
2023/08/15 04:42:17;;;;;;;14.68;10.23;;;;;;;;;;5097856;28;20479;-57
2023/08/15 04:44:43;;;;;;;13.10;10.07;;;;;;;;;;5097082;28;20417;-57
2023/08/15 04:47:09;;;;;;;15.90;10.68;;;;;;;;;;5092472;28;20046;-57
2023/08/15 04:49:35;;;;;;;13.88;9.07;;;;;;;;;;5082200;28;20048;-57
2023/08/15 04:52:01;;;;;;;14.13;9.85;;;;;;;;;;5093184;28;20044;-57
2023/08/15 04:54:28;;;;;;;14.77;8.80;;;;;;;;;;5093907;28;20048;-57
2023/08/15 04:56:54;;;;;;;17.27;9.80;;;;;;;;;;5097761;28;20044;-57
2023/08/15 04:59:20;;;;;;;11.43;9.05;;;;;;;;;;5100084;28;20042;-57
2023/08/15 05:01:46;;;;;;;14.15;9.18;;;;;;;;;;5092407;28;20515;-57
2023/08/15 05:04:13;;;;;;;13.15;7.65;;;;;;;;;;5102595;28;20055;-57
2023/08/15 05:06:39;;;;;;;13.27;8.02;;;;;;;;;;5089338;28;20071;-57
2023/08/15 05:09:05;;;;;;;13.10;7.68;;;;;;;;;;5104836;28;20172;-57
2023/08/15 05:11:31;;;;;;;16.88;7.40;;;;;;;;;;5091685;28;20520;-57
2023/08/15 05:13:59;;;;;;;11.15;7.00;;;;;;;;;;5103333;28;20119;-57
2023/08/15 05:16:25;;;;;;;12.00;6.53;;;;;;;;;;5089719;28;20497;-57
2023/08/15 05:18:51;;;;;;;12.90;6.85;;;;;;;;;;5086577;28;20040;-58
2023/08/15 05:21:17;;;;;;;13.30;6.93;;;;;;;;;;5082805;28;20225;-57
2023/08/15 05:23:43;;;;;;;12.95;6.40;;;;;;;;;;5094307;28;20078;-57
2023/08/15 05:26:10;;;;;;;15.95;7.05;;;;;;;;;;5088906;28;20048;-57
2023/08/15 05:28:36;;;;;;;14.68;7.38;;;;;;;;;;5095845;28;20051;-57
2023/08/15 05:31:03;;;;;;;11.95;6.22;;;;;;;;;;5094116;28;20048;-57
2023/08/15 05:33:29;;;;;;;12.07;6.70;;;;;;;;;;5090257;28;20399;-57
2023/08/15 05:35:55;;;;;;;15.38;6.70;;;;;;;;;;5099290;28;20064;-57
2023/08/15 05:38:21;;;;;;;13.68;6.43;;;;;;;;;;5082609;28;20503;-59
2023/08/15 05:40:47;;;;;;;13.90;6.55;;;;;;;;;;5111150;28;20043;-57
2023/08/15 05:43:13;;;;;;;11.75;6.72;;;;;;;;;;5110313;28;20100;-57
2023/08/15 05:45:40;;;;;;;14.95;6.90;;;;;;;;;;5105357;28;20101;-57
2023/08/15 05:48:06;;;;;;;12.18;5.75;;;;;;;;;;5104989;28;20167;-58
2023/08/15 05:50:32;;;;;;;14.13;6.93;;;;;;;;;;5102467;28;20055;-58
2023/08/15 05:52:58;;;;;;;16.55;7.35;;;;;;;;;;5090204;28;20456;-58
2023/08/15 05:55:25;;;;;;;17.20;8.13;;;;;;;;;;5093091;28;20048;-58
2023/08/15 05:57:51;;;;;;;14.00;8.23;;;;;;;;;;5102427;28;20114;-58
2023/08/15 06:00:18;;;;;;;17.55;8.98;;;;;;;;;;5108564;28;20081;-58
2023/08/15 06:02:44;;;;;;;18.73;9.35;;;;;;;;;;5097503;28;20146;-58
2023/08/15 06:05:11;;;;;;;17.20;9.40;;;;;;;;;;5105043;28;20070;-58
2023/08/15 06:07:37;;;;;;;16.13;8.82;;;;;;;;;;5098775;28;20036;-58
2023/08/15 06:10:03;;;;;;;16.30;7.68;;;;;;;;;;5110040;28;20052;-58
2023/08/15 06:12:29;;;;;;;31.45;11.95;;;;;;;;;;5110860;28;20035;-58
2023/08/15 06:14:56;;;;;;;17.33;9.05;;;;;;;;;;5104852;28;20074;-58
2023/08/15 06:17:22;;;;;;;18.27;7.85;;;;;;;;;;5093952;28;20475;-58
2023/08/15 06:19:48;;;;;;;19.10;9.02;;;;;;;;;;5110580;28;20122;-58
2023/08/15 06:22:15;;;;;;;15.60;7.68;;;;;;;;;;5102583;28;20139;-58
2023/08/15 06:24:41;;;;;;;17.90;8.30;;;;;;;;;;5090902;28;20058;-58
2023/08/15 06:27:07;;;;;;;16.00;7.18;;;;;;;;;;5099981;28;20063;-58
2023/08/15 06:29:33;;;;;;;22.63;7.63;;;;;;;;;;5100319;28;20407;-58
2023/08/15 06:32:00;;;;;;;12.35;6.28;;;;;;;;;;5093137;28;20080;-59
2023/08/15 06:34:26;;;;;;;16.88;6.90;;;;;;;;;;5095630;28;20059;-58
2023/08/15 06:36:54;;;;;;;15.15;6.85;;;;;;;;;;5101907;28;20043;-59
2023/08/15 06:39:20;;;;;;;16.63;7.07;;;;;;;;;;5103783;28;20097;-59
2023/08/15 06:41:46;;;;;;;17.52;6.68;;;;;;;;;;5085904;28;20117;-58
2023/08/15 06:44:12;;;;;;;15.82;6.20;;;;;;;;;;5096445;28;20033;-58
2023/08/15 06:46:39;;;;;;;14.60;6.55;;;;;;;;;;5106985;28;20424;-59
2023/08/15 06:49:05;;;;;;;15.88;6.72;;;;;;;;;;5097068;28;20059;-58
2023/08/15 06:51:31;;;;;;;12.07;5.93;;;;;;;;;;5098778;28;20476;-58
2023/08/15 06:53:58;;;;;;;15.95;6.20;;;;;;;;;;5092000;28;20486;-58
2023/08/15 06:56:24;;;;;;;13.75;5.18;;;;;;;;;;5092053;28;20051;-58
2023/08/15 06:58:50;;;;;;;15.63;4.75;;;;;;;;;;5092520;28;20044;-58
2023/08/15 07:01:16;;;;;;;14.25;3.95;;;;;;;;;;5093414;28;20088;-58
2023/08/15 07:03:42;;;;;;;12.10;3.97;;;;;;;;;;5092045;28;20127;-58
2023/08/15 07:06:09;;;;;;;16.90;5.03;;;;;;;;;;5091528;28;20096;-58
2023/08/15 07:08:35;;;;;;;15.80;4.15;;;;;;;;;;5093088;28;20495;-58
2023/08/15 07:11:01;;;;;;;15.00;3.45;;;;;;;;;;5091439;28;20048;-58
2023/08/15 07:13:27;;;;;;;11.93;3.30;;;;;;;;;;5090712;28;20149;-58
2023/08/15 07:15:57;;;;;;;11.68;3.25;;;;;;;;;;5092863;28;20420;-59
2023/08/15 07:18:24;;;;;;;13.65;3.55;;;;;;;;;;5092920;28;20044;-59
2023/08/15 07:20:53;;;;;;;12.35;3.45;;;;;;;;;;5091634;28;20036;-59
2023/08/15 07:23:22;;;;;;;12.02;3.50;;;;;;;;;;5091101;28;20036;-58
2023/08/15 07:25:49;;;;;;;11.40;3.33;;;;;;;;;;5092402;28;20055;-59
2023/08/15 07:28:15;;;;;;;12.50;3.97;;;;;;;;;;5091917;28;20062;-59
2023/08/15 07:30:45;;;;;;;14.00;3.15;;;;;;;;;;5092507;28;20103;-58
2023/08/15 07:33:12;;;;;;;12.52;3.25;;;;;;;;;;5091050;28;20128;-58
2023/08/15 07:35:38;;;;;;;9.73;2.33;;;;;;;;;;5085734;28;20044;-58
2023/08/15 07:38:04;;;;;;;10.77;2.28;;;;;;;;;;5103647;28;20100;-58
2023/08/15 07:40:31;;;;;;;10.63;2.65;;;;;;;;;;5107604;28;20032;-59
2023/08/15 07:42:57;;;;;;;11.32;2.35;;;;;;;;;;5092997;28;20055;-58
2023/08/15 07:45:23;;;;;;;10.95;2.42;;;;;;;;;;5094605;28;20499;-58
2023/08/15 07:47:52;;;;;;;12.45;2.67;;;;;;;;;;5086711;28;20206;-58
2023/08/15 07:50:21;;;;;;;6.03;2.05;;;;;;;;;;5094211;28;20066;-59
2023/08/15 07:52:48;;;;;;;8.65;1.95;;;;;;;;;;5095179;28;20047;-59
2023/08/15 07:55:14;;;;;;;6.70;2.22;;;;;;;;;;5103758;28;20661;-59
2023/08/15 07:57:40;;;;;;;8.88;2.45;;;;;;;;;;5103394;28;20130;-59
2023/08/15 08:00:08;;;;;;;7.55;2.42;;;;;;;;;;5105647;28;20069;-59
2023/08/15 08:02:35;;;;;;;13.45;2.63;;;;;;;;;;5099924;28;20119;-59
2023/08/15 08:05:02;;;;;;;11.32;2.65;;;;;;;;;;5094766;28;20052;-59
2023/08/15 08:07:29;;;;;;;8.05;2.13;;;;;;;;;;5107768;28;20130;-59
2023/08/15 08:09:57;;;;;;;10.70;2.72;;;;;;;;;;5106910;28;20113;-59
2023/08/15 08:12:23;;;;;;;8.90;2.20;;;;;;;;;;5089946;28;20113;-59
2023/08/15 08:14:49;;;;;;;7.72;1.90;;;;;;;;;;5091022;28;20035;-59
2023/08/15 08:17:16;;;;;;;6.63;1.63;;;;;;;;;;5095098;28;20126;-59
2023/08/15 08:19:42;;;;;;;8.18;2.25;;;;;;;;;;5104334;28;20084;-59
2023/08/15 08:22:08;;;;;;;7.20;2.22;;;;;;;;;;5097341;28;20119;-59
2023/08/15 08:24:34;;;;;;;11.75;1.83;;;;;;;;;;5099575;28;20487;-59
2023/08/15 08:27:00;;;;;;;9.18;1.80;;;;;;;;;;5098939;28;20055;-59
2023/08/15 08:29:26;;;;;;;6.65;1.70;;;;;;;;;;5095484;28;20097;-59
2023/08/15 08:31:53;;;;;;;7.97;1.98;;;;;;;;;;5088364;28;20049;-59
2023/08/15 08:34:19;;;;;;;8.70;1.70;;;;;;;;;;5090197;28;20040;-60
2023/08/15 08:36:45;;;;;;;7.93;2.45;;;;;;;;;;5097726;28;20391;-59
2023/08/15 08:39:11;;;;;;;9.23;2.00;;;;;;;;;;5104849;28;20039;-59
2023/08/15 08:41:38;;;;;;;6.22;1.85;;;;;;;;;;5103551;28;20040;-59
2023/08/15 08:44:04;;;;;;;9.90;2.22;;;;;;;;;;5101774;28;20107;-59
2023/08/15 08:46:31;;;;;;;7.57;2.08;;;;;;;;;;5111532;28;20491;-59
2023/08/15 08:48:58;;;;;;;6.53;1.60;;;;;;;;;;5106564;28;20142;-58
2023/08/15 08:51:27;;;;;;;8.30;1.50;;;;;;;;;;5104277;28;20483;-58
2023/08/15 08:53:54;;;;;;;8.98;1.90;;;;;;;;;;5101433;28;20055;-58
2023/08/15 08:56:24;;;;;;;8.70;1.85;;;;;;;;;;5111445;28;20047;-58
2023/08/15 08:58:56;;;;;;;7.75;1.83;;;;;;;;;;5083610;28;20048;-58
2023/08/15 09:01:23;;;;;;;7.50;1.63;;;;;;;;;;5111597;28;20083;-58
2023/08/15 09:03:49;;;;;;;6.70;1.60;;;;;;;;;;5099784;28;20402;-58
2023/08/15 09:06:15;;;;;;;5.85;1.67;;;;;;;;;;5102195;28;20118;-58
2023/08/15 09:08:41;;;;;;;9.88;1.90;;;;;;;;;;5108889;28;20084;-58
2023/08/15 09:11:07;;;;;;;6.90;1.70;;;;;;;;;;5103594;28;20118;-58
2023/08/15 09:13:34;;;;;;;6.70;1.48;;;;;;;;;;5093824;28;20088;-58
2023/08/15 09:16:04;;;;;;;6.97;1.67;;;;;;;;;;5108784;28;20040;-58
2023/08/15 09:18:33;;;;;;;10.50;2.35;;;;;;;;;;5102218;28;20047;-58
2023/08/15 09:21:00;;;;;;;4.72;1.30;;;;;;;;;;5109087;28;20071;-58
2023/08/15 09:23:26;;;;;;;8.02;1.33;;;;;;;;;;5098842;28;20043;-58
2023/08/15 09:25:55;;;;;;;7.88;1.60;;;;;;;;;;5110052;28;20047;-59
2023/08/15 09:28:22;;;;;;;6.35;2.17;;;;;;;;;;5110524;28;20051;-59
2023/08/15 09:30:54;;;;;;;8.43;1.58;;;;;;;;;;5110961;28;20066;-59
2023/08/15 09:33:20;;;;;;;9.65;1.60;;;;;;;;;;5099759;28;20480;-59
2023/08/15 09:35:46;;;;;;;5.53;1.58;;;;;;;;;;5101104;28;20400;-59
2023/08/15 09:38:14;;;;;;;5.85;1.60;;;;;;;;;;5110893;28;20040;-60
2023/08/15 09:40:44;;;;;;;5.53;1.42;;;;;;;;;;5110419;28;20494;-59
2023/08/15 09:43:17;;;;;;;4.00;1.52;;;;;;;;;;5105633;28;20047;-59
2023/08/15 09:45:43;;;;;;;6.70;1.42;;;;;;;;;;5099892;28;20039;-59
2023/08/15 09:48:10;;;;;;;7.53;2.00;;;;;;;;;;5109811;28;20392;-59
2023/08/15 09:50:37;;;;;;;5.10;1.40;;;;;;;;;;5099074;28;20043;-59
2023/08/15 09:53:05;;;;;;;6.68;1.40;;;;;;;;;;5104748;28;20441;-59
2023/08/15 09:55:32;;;;;;;7.63;1.50;;;;;;;;;;5110043;28;20088;-59
2023/08/15 09:57:58;;;;;;;6.30;1.75;;;;;;;;;;5111892;28;20562;-59
2023/08/15 10:00:24;;;;;;;4.90;1.65;;;;;;;;;;5114869;28;20122;-59
2023/08/15 10:02:56;;;;;;;6.97;1.48;;;;;;;;;;5100459;28;20040;-59
2023/08/15 10:05:24;;;;;;;5.22;1.60;;;;;;;;;;5114887;28;20039;-59
2023/08/15 10:07:51;;;;;;;6.78;1.80;;;;;;;;;;5098984;28;20115;-59
2023/08/15 10:10:18;;;;;;;5.03;1.70;;;;;;;;;;5101790;28;20087;-59
2023/08/15 10:12:45;;;;;;;7.60;1.67;;;;;;;;;;5092070;28;20403;-59
2023/08/15 10:15:12;;;;;;;6.68;1.20;;;;;;;;;;5098286;28;20126;-60
2023/08/15 10:17:39;;;;;;;7.25;1.98;;;;;;;;;;5097893;28;20048;-59
2023/08/15 10:20:05;;;;;;;6.80;1.60;;;;;;;;;;5092644;28;20483;-59
2023/08/15 10:22:33;;;;;;;5.55;1.60;;;;;;;;;;5092575;28;20047;-59
2023/08/15 10:25:22;;;;;;;6.88;1.58;;;;;;;;;;5092571;28;20039;-59
2023/08/15 10:27:50;;;;;;;4.97;1.48;;;;;;;;;;5090259;28;20130;-59
2023/08/15 10:30:33;;;;;;;6.90;1.50;;;;;;;;;;5090886;28;20046;-58
2023/08/15 10:33:26;;;;;;;7.68;2.53;;;;;;;;;;5088519;28;20886;-59
2023/08/15 10:36:06;;;;;;;5.15;1.55;;;;;;;;;;5089365;28;20479;-59
2023/08/15 10:38:37;;;;;;;3.90;1.70;;;;;;;;;;5100383;28;20135;-59
2023/08/15 10:41:04;;;;;;;7.38;1.70;;;;;;;;;;5109992;28;20508;-58
2023/08/15 10:43:32;;;;;;;4.82;1.58;;;;;;;;;;5104820;28;20397;-59
2023/08/15 10:46:00;;;;;;;6.78;1.95;;;;;;;;;;5095817;28;20100;-59
2023/08/15 10:48:49;;;;;;;6.00;2.05;;;;;;;;;;5094661;28;20078;-59
2023/08/15 10:51:26;;;;;;;4.60;1.58;;;;;;;;;;5108817;28;20047;-59
2023/08/15 10:53:54;;;;;;;5.63;1.40;;;;;;;;;;5105981;28;20131;-59
2023/08/15 10:56:21;;;;;;;5.63;1.65;;;;;;;;;;5101993;28;20084;-59
2023/08/15 10:58:47;;;;;;;5.72;1.90;;;;;;;;;;5083568;28;20044;-59
2023/08/15 11:01:18;;;;;;;7.07;1.83;;;;;;;;;;5104621;28;20124;-59
2023/08/15 11:03:45;;;;;;;7.30;1.85;;;;;;;;;;5107282;28;20062;-59
2023/08/15 11:06:12;;;;;;;6.00;1.50;;;;;;;;;;5091473;28;20448;-58
2023/08/15 11:08:49;;;;;;;6.93;1.33;;;;;;;;;;5092574;28;20060;-59
2023/08/15 11:11:16;;;;;;;5.85;1.70;;;;;;;;;;5089418;28;20051;-59
2023/08/15 11:13:46;;;;;;;7.35;1.60;;;;;;;;;;5092445;28;20055;-59
2023/08/15 11:16:16;;;;;;;5.25;1.20;;;;;;;;;;5092407;28;20426;-59
2023/08/15 11:18:42;;;;;;;5.95;1.48;;;;;;;;;;5092139;28;20047;-59
2023/08/15 11:21:10;;;;;;;5.53;1.30;;;;;;;;;;5086948;28;20060;-58
2023/08/15 11:23:36;;;;;;;5.43;1.50;;;;;;;;;;5090306;28;20159;-59
2023/08/15 11:26:03;;;;;;;6.15;1.70;;;;;;;;;;5092023;28;20066;-59
2023/08/15 11:28:30;;;;;;;5.35;1.90;;;;;;;;;;5092760;28;20051;-59
2023/08/15 11:30:58;;;;;;;7.25;1.60;;;;;;;;;;5092583;28;20040;-59
2023/08/15 11:33:24;;;;;;;6.97;1.40;;;;;;;;;;5090223;28;20080;-59
2023/08/15 11:35:51;;;;;;;5.07;1.63;;;;;;;;;;5091490;28;20047;-59
2023/08/15 11:38:18;;;;;;;7.13;1.52;;;;;;;;;;5106813;28;20084;-59
2023/08/15 11:40:45;;;;;;;6.85;1.40;;;;;;;;;;5111954;28;20184;-59
2023/08/15 11:43:11;;;;;;;5.68;1.33;;;;;;;;;;5099867;28;20032;-59
2023/08/15 11:45:40;;;;;;;7.85;1.65;;;;;;;;;;5101298;28;20036;-59
2023/08/15 11:48:09;;;;;;;4.80;1.20;;;;;;;;;;5093879;28;20044;-60
2023/08/15 11:50:35;;;;;;;7.55;1.85;;;;;;;;;;5111548;28;20118;-59
2023/08/15 11:53:08;;;;;;;4.35;1.30;;;;;;;;;;5091955;28;20040;-60
2023/08/15 11:55:38;;;;;;;5.47;1.60;;;;;;;;;;5111604;28;20467;-59
2023/08/15 11:58:20;;;;;;;5.90;1.38;;;;;;;;;;5120913;27;20040;-59
2023/08/15 12:00:46;;;;;;;7.55;1.58;;;;;;;;;;5116284;27;20039;-59
2023/08/15 12:03:13;;;;;;;5.97;1.38;;;;;;;;;;5091858;27;20173;-60
2023/08/15 12:05:39;;;;;;;4.85;1.30;;;;;;;;;;5094267;28;20384;-60
2023/08/15 12:08:05;;;;;;;5.03;1.40;;;;;;;;;;5111710;28;20063;-60
2023/08/15 12:10:32;;;;;;;2.85;1.30;;;;;;;;;;5097102;28;20035;-60
2023/08/15 12:13:02;;;;;;;4.82;1.27;;;;;;;;;;5097747;28;20040;-59
2023/08/15 12:15:28;;;;;;;6.25;1.80;;;;;;;;;;5106151;28;20513;-59
2023/08/15 12:17:54;;;;;;;5.18;1.25;;;;;;;;;;5100258;28;20487;-59
2023/08/15 12:20:21;;;;;;;4.88;1.60;;;;;;;;;;5111567;28;20063;-60
2023/08/15 12:22:47;;;;;;;5.40;1.55;;;;;;;;;;5111426;28;20479;-59
2023/08/15 12:25:13;;;;;;;6.20;1.60;;;;;;;;;;5112306;28;20078;-59
2023/08/15 12:27:39;;;;;;;4.65;1.23;;;;;;;;;;5103383;28;20044;-59
2023/08/15 12:30:06;;;;;;;5.75;1.85;;;;;;;;;;5096256;28;20028;-59
2023/08/15 12:32:32;;;;;;;6.38;1.30;;;;;;;;;;5109979;28;20099;-60
2023/08/15 12:34:58;;;;;;;6.05;1.90;;;;;;;;;;5103869;28;20052;-60
2023/08/15 12:37:25;;;;;;;6.03;1.67;;;;;;;;;;5102900;28;20055;-60
2023/08/15 12:39:51;;;;;;;4.05;1.50;;;;;;;;;;5100876;28;20036;-60
2023/08/15 12:42:18;;;;;;;6.00;2.22;;;;;;;;;;5099831;28;20372;-60
2023/08/15 12:44:44;;;;;;;9.75;1.67;;;;;;;;;;5108750;28;20036;-59
2023/08/15 12:47:10;;;;;;;4.45;1.30;;;;;;;;;;5111614;28;20051;-69
2023/08/15 12:49:40;;;;;;;6.07;1.60;;;;;;;;;;5101921;27;20101;-59
2023/08/15 12:52:06;;;;;;;4.15;1.50;;;;;;;;;;5106071;28;20129;-59
2023/08/15 12:54:33;;;;;;;5.50;1.65;;;;;;;;;;5102095;28;20047;-60
2023/08/15 12:57:00;;;;;;;5.43;1.50;;;;;;;;;;5104804;28;20044;-59
2023/08/15 12:59:26;;;;;;;9.88;1.73;;;;;;;;;;5110680;28;20087;-59
2023/08/15 13:01:52;;;;;;;6.97;1.60;;;;;;;;;;5111432;28;20049;-59
2023/08/15 13:04:19;;;;;;;4.60;1.40;;;;;;;;;;5097630;28;20031;-58
2023/08/15 13:06:45;;;;;;;7.43;1.55;;;;;;;;;;5100766;28;20055;-57
2023/08/15 13:09:11;;;;;;;3.10;1.42;;;;;;;;;;5084885;28;20492;-59
2023/08/15 13:11:37;;;;;;;5.18;1.67;;;;;;;;;;5103341;28;20051;-67
2023/08/15 13:14:04;;;;;;;3.78;1.35;;;;;;;;;;5101380;28;20521;-59
2023/08/15 13:16:33;;;;;;;4.47;1.20;;;;;;;;;;5110962;28;20054;-59
2023/08/15 13:19:00;;;;;;;3.42;1.15;;;;;;;;;;5110719;28;20075;-59
2023/08/15 13:21:28;;;;;;;4.68;1.10;;;;;;;;;;5111229;28;20047;-59
2023/08/15 13:23:54;;;;;;;5.95;1.67;;;;;;;;;;5097577;28;20120;-59
2023/08/15 13:26:20;;;;;;;4.90;1.48;;;;;;;;;;5104006;28;20043;-59
2023/08/15 13:28:47;;;;;;;5.30;1.38;;;;;;;;;;5099367;28;20040;-59
2023/08/15 13:31:13;;;;;;;4.15;1.00;;;;;;;;;;5110824;28;20044;-59
2023/08/15 13:33:40;;;;;;;5.28;1.20;;;;;;;;;;5109425;28;20355;-59
2023/08/15 13:36:06;;;;;;;4.18;1.10;;;;;;;;;;5111096;28;20433;-59
2023/08/15 13:38:32;;;;;;;5.97;1.02;;;;;;;;;;5099290;28;20039;-59
2023/08/15 13:40:59;;;;;;;4.85;0.95;;;;;;;;;;5107093;28;20462;-59
2023/08/15 13:43:25;;;;;;;4.82;1.00;;;;;;;;;;5092185;28;20063;-59
2023/08/15 13:45:52;;;;;;;5.07;1.20;;;;;;;;;;5107374;28;20522;-59
2023/08/15 13:48:18;;;;;;;7.85;1.83;;;;;;;;;;5087710;28;20048;-59
2023/08/15 13:50:45;;;;;;;3.53;1.10;;;;;;;;;;5110814;28;20048;-59
2023/08/15 13:53:11;;;;;;;3.35;1.27;;;;;;;;;;5103463;28;20044;-59
2023/08/15 13:55:38;;;;;;;3.60;1.00;;;;;;;;;;5099464;28;20116;-59
2023/08/15 13:58:04;;;;;;;7.10;1.30;;;;;;;;;;5091095;28;20054;-59
2023/08/15 14:00:32;;;;;;;5.22;1.10;;;;;;;;;;5103052;28;20484;-59
2023/08/15 14:02:58;;;;;;;8.18;1.55;;;;;;;;;;5098457;28;20051;-59
2023/08/15 14:05:25;;;;;;;3.90;1.00;;;;;;;;;;5105914;28;20105;-59
2023/08/15 14:07:51;;;;;;;3.03;0.88;;;;;;;;;;5099359;28;20043;-59
2023/08/15 14:10:18;;;;;;;3.40;1.10;;;;;;;;;;5095522;28;20094;-58
2023/08/15 14:12:44;;;;;;;3.35;0.93;;;;;;;;;;5096914;28;20035;-58
2023/08/15 14:15:12;;;;;;;3.25;0.85;;;;;;;;;;5104031;28;20361;-58
2023/08/15 14:17:38;;;;;;;3.22;0.95;;;;;;;;;;5101041;28;20472;-58
2023/08/15 14:20:05;;;;;;;3.10;0.70;;;;;;;;;;5102781;28;20032;-58
2023/08/15 14:22:31;;;;;;;4.68;1.05;;;;;;;;;;5103141;28;20043;-58
2023/08/15 14:24:57;;;;;;;3.08;0.82;;;;;;;;;;5106024;28;20329;-58
2023/08/15 14:27:23;;;;;;;3.97;1.15;;;;;;;;;;5106769;28;20051;-57
2023/08/15 14:29:50;;;;;;;2.70;0.88;;;;;;;;;;5094122;28;20044;-58
2023/08/15 14:32:17;;;;;;;2.90;0.90;;;;;;;;;;5090303;28;20040;-58
2023/08/15 14:34:43;;;;;;;3.40;1.00;;;;;;;;;;5106493;28;20424;-60